createdAt,value
2019-02-07T00:00:39.076Z,0.00
2019-02-07T00:01:39.099Z,0.00
2019-02-07T00:02:39.120Z,0.00
2019-02-07T00:03:39.145Z,0.00
2019-02-07T00:04:39.169Z,0.00
2019-02-07T00:05:39.191Z,0.00
2019-02-07T00:06:39.208Z,0.00
2019-02-07T00:07:39.234Z,0.00
2019-02-07T00:08:39.255Z,0.00
2019-02-07T00:09:39.276Z,0.00
2019-02-07T00:10:39.300Z,0.00
2019-02-07T00:11:39.320Z,0.00
2019-02-07T00:12:39.341Z,0.00
2019-02-07T00:13:39.364Z,0.00
2019-02-07T00:14:40.051Z,0.00
2019-02-07T00:15:39.409Z,0.00
2019-02-07T00:16:39.432Z,0.00
2019-02-07T00:17:39.456Z,0.00
2019-02-07T00:18:39.475Z,0.00
2019-02-07T00:19:39.498Z,0.00
2019-02-07T00:20:39.522Z,0.00
2019-02-07T00:21:39.543Z,0.00
2019-02-07T00:22:39.567Z,0.00
2019-02-07T00:23:39.586Z,0.00
2019-02-07T00:24:42.839Z,0.00
2019-02-07T00:25:39.633Z,0.00
2019-02-07T00:26:39.657Z,0.00
2019-02-07T00:27:39.679Z,0.00
2019-02-07T00:28:39.697Z,0.00
2019-02-07T00:29:39.723Z,0.00
2019-02-07T00:30:39.747Z,0.00
2019-02-07T00:31:39.771Z,0.00
2019-02-07T00:32:39.788Z,0.00
2019-02-07T00:33:39.811Z,0.00
2019-02-07T00:34:39.837Z,0.00
2019-02-07T00:35:39.855Z,0.00
2019-02-07T00:36:39.876Z,0.00
2019-02-07T00:37:39.901Z,0.00
2019-02-07T00:38:39.923Z,0.00
2019-02-07T00:39:39.944Z,0.00
2019-02-07T00:40:39.970Z,0.00
2019-02-07T00:41:39.990Z,0.00
2019-02-07T00:42:40.017Z,0.00
2019-02-07T00:43:40.037Z,0.00
2019-02-07T00:44:50.210Z,0.00
2019-02-07T00:45:40.082Z,0.00
2019-02-07T00:46:40.103Z,0.00
2019-02-07T00:47:40.125Z,0.00
2019-02-07T00:48:40.150Z,0.00
2019-02-07T00:49:40.171Z,0.00
2019-02-07T00:50:40.196Z,0.00
2019-02-07T00:51:40.218Z,0.00
2019-02-07T00:52:40.240Z,0.00
2019-02-07T00:53:40.262Z,0.00
2019-02-07T00:54:40.286Z,0.00
2019-02-07T00:55:40.306Z,0.00
2019-02-07T00:56:40.328Z,0.00
2019-02-07T00:57:40.357Z,0.00
2019-02-07T00:58:40.375Z,0.00
2019-02-07T00:59:40.398Z,0.00
2019-02-07T01:00:40.419Z,0.00
2019-02-07T01:01:40.445Z,0.00
2019-02-07T01:02:40.466Z,0.00
2019-02-07T01:03:40.489Z,0.00
2019-02-07T01:04:40.511Z,0.00
2019-02-07T01:05:40.534Z,0.00
2019-02-07T01:06:40.557Z,0.00
2019-02-07T01:07:40.580Z,0.00
2019-02-07T01:08:40.602Z,0.00
2019-02-07T01:09:40.627Z,0.00
2019-02-07T01:10:40.648Z,0.00
2019-02-07T01:11:40.673Z,0.00
2019-02-07T01:12:40.692Z,0.00
2019-02-07T01:13:40.716Z,0.00
2019-02-07T01:14:40.742Z,0.00
2019-02-07T01:15:40.764Z,0.00
2019-02-07T01:16:40.788Z,0.00
2019-02-07T01:17:40.807Z,0.00
2019-02-07T01:18:40.830Z,0.00
2019-02-07T01:19:40.857Z,0.00
2019-02-07T01:20:40.874Z,0.00
2019-02-07T01:21:40.900Z,0.00
2019-02-07T01:22:40.923Z,0.00
2019-02-07T01:23:40.945Z,0.00
2019-02-07T01:24:40.971Z,0.00
2019-02-07T01:25:40.991Z,0.00
2019-02-07T01:26:41.014Z,0.00
2019-02-07T01:27:41.036Z,0.00
2019-02-07T01:28:41.059Z,0.00
2019-02-07T01:29:41.090Z,0.00
2019-02-07T01:30:41.106Z,0.00
2019-02-07T01:31:41.130Z,0.00
2019-02-07T01:32:41.150Z,0.00
2019-02-07T01:33:41.173Z,0.00
2019-02-07T01:34:41.201Z,0.00
2019-02-07T01:35:41.221Z,0.00
2019-02-07T01:36:41.245Z,0.00
2019-02-07T01:37:41.267Z,0.00
2019-02-07T01:38:41.289Z,0.00
2019-02-07T01:39:41.319Z,0.00
2019-02-07T01:40:41.337Z,0.00
2019-02-07T01:41:41.361Z,0.00
2019-02-07T01:42:41.381Z,0.00
2019-02-07T01:43:41.404Z,0.00
2019-02-07T01:44:41.431Z,0.00
2019-02-07T01:45:41.454Z,0.00
2019-02-07T01:46:41.479Z,0.00
2019-02-07T01:47:41.500Z,0.00
2019-02-07T01:48:41.519Z,0.00
2019-02-07T01:49:41.545Z,0.00
2019-02-07T01:50:41.567Z,0.00
2019-02-07T01:51:41.590Z,0.00
2019-02-07T01:52:41.614Z,0.00
2019-02-07T01:53:41.636Z,0.00
2019-02-07T01:54:41.660Z,0.00
2019-02-07T01:55:41.685Z,0.00
2019-02-07T01:56:41.705Z,0.00
2019-02-07T01:57:41.731Z,0.00
2019-02-07T01:58:41.752Z,0.00
2019-02-07T01:59:41.776Z,0.00
2019-02-07T02:00:41.799Z,0.00
2019-02-07T02:01:41.826Z,0.00
2019-02-07T02:02:41.846Z,0.00
2019-02-07T02:03:41.871Z,0.00
2019-02-07T02:04:41.891Z,0.00
2019-02-07T02:05:41.915Z,0.00
2019-02-07T02:06:41.938Z,0.00
2019-02-07T02:07:41.962Z,0.00
2019-02-07T02:08:41.986Z,0.00
2019-02-07T02:09:42.009Z,0.00
2019-02-07T02:10:42.083Z,0.00
2019-02-07T02:11:42.057Z,0.00
2019-02-07T02:12:42.077Z,0.00
2019-02-07T02:13:42.100Z,0.00
2019-02-07T02:14:42.127Z,0.00
2019-02-07T02:15:42.146Z,0.00
2019-02-07T02:16:42.170Z,0.00
2019-02-07T02:17:42.199Z,0.00
2019-02-07T02:18:42.217Z,0.00
2019-02-07T02:19:42.240Z,0.00
2019-02-07T02:20:42.262Z,0.00
2019-02-07T02:21:42.285Z,0.00
2019-02-07T02:22:42.314Z,0.00
2019-02-07T02:23:42.335Z,0.00
2019-02-07T02:24:45.119Z,0.00
2019-02-07T02:25:42.378Z,0.00
2019-02-07T02:26:42.402Z,0.00
2019-02-07T02:27:42.434Z,0.00
2019-02-07T02:28:42.451Z,0.00
2019-02-07T02:29:42.472Z,0.00
2019-02-07T02:30:42.499Z,0.00
2019-02-07T02:31:42.518Z,0.00
2019-02-07T02:32:42.544Z,0.00
2019-02-07T02:33:42.570Z,0.00
2019-02-07T02:34:42.589Z,0.00
2019-02-07T02:35:42.611Z,0.00
2019-02-07T02:36:42.636Z,0.00
2019-02-07T02:37:42.658Z,0.00
2019-02-07T02:38:42.692Z,0.00
2019-02-07T02:39:42.703Z,0.00
2019-02-07T02:40:42.728Z,0.00
2019-02-07T02:41:42.755Z,0.00
2019-02-07T02:42:42.776Z,0.00
2019-02-07T02:43:42.803Z,0.00
2019-02-07T02:44:42.821Z,0.00
2019-02-07T02:45:42.844Z,0.00
2019-02-07T02:46:42.871Z,0.00
2019-02-07T02:47:42.892Z,0.00
2019-02-07T02:48:42.918Z,0.00
2019-02-07T02:49:42.942Z,0.00
2019-02-07T02:50:42.962Z,0.00
2019-02-07T02:51:42.985Z,0.00
2019-02-07T02:52:43.030Z,0.00
2019-02-07T02:53:43.034Z,0.00
2019-02-07T02:54:43.164Z,0.00
2019-02-07T02:55:43.079Z,0.00
2019-02-07T02:56:43.101Z,0.00
2019-02-07T02:57:43.127Z,0.00
2019-02-07T02:58:43.150Z,0.00
2019-02-07T02:59:43.172Z,0.00
2019-02-07T03:00:43.194Z,0.00
2019-02-07T03:01:43.219Z,0.00
2019-02-07T03:02:43.241Z,0.00
2019-02-07T03:03:43.264Z,0.00
2019-02-07T03:04:43.289Z,0.00
2019-02-07T03:05:43.325Z,0.00
2019-02-07T03:06:43.336Z,0.00
2019-02-07T03:07:43.360Z,0.00
2019-02-07T03:08:43.542Z,0.00
2019-02-07T03:09:43.406Z,0.00
2019-02-07T03:10:43.428Z,0.00
2019-02-07T03:11:43.468Z,0.00
2019-02-07T03:12:43.474Z,0.00
2019-02-07T03:13:43.498Z,0.00
2019-02-07T03:14:43.524Z,0.00
2019-02-07T03:15:49.625Z,0.00
2019-02-07T03:16:43.575Z,0.00
2019-02-07T03:17:43.590Z,0.00
2019-02-07T03:18:43.618Z,0.00
2019-02-07T03:19:43.761Z,0.00
2019-02-07T03:20:43.660Z,0.00
2019-02-07T03:21:43.683Z,0.00
2019-02-07T03:22:43.803Z,0.00
2019-02-07T03:23:43.730Z,0.00
2019-02-07T03:24:43.753Z,0.00
2019-02-07T03:25:43.779Z,0.00
2019-02-07T03:26:43.799Z,0.00
2019-02-07T03:27:43.824Z,0.00
2019-02-07T03:28:43.848Z,0.00
2019-02-07T03:29:43.873Z,0.00
2019-02-07T03:30:43.895Z,0.00
2019-02-07T03:31:43.919Z,0.00
2019-02-07T03:32:43.941Z,0.00
2019-02-07T03:33:43.965Z,0.00
2019-02-07T03:34:43.988Z,0.00
2019-02-07T03:35:44.013Z,0.00
2019-02-07T03:36:44.033Z,0.00
2019-02-07T03:37:44.056Z,0.00
2019-02-07T03:38:44.082Z,0.00
2019-02-07T03:39:44.108Z,0.00
2019-02-07T03:40:44.130Z,0.00
2019-02-07T03:41:44.154Z,0.00
2019-02-07T03:42:44.175Z,0.00
2019-02-07T03:43:44.197Z,0.00
2019-02-07T03:44:44.223Z,0.00
2019-02-07T03:45:44.245Z,0.00
2019-02-07T03:46:44.268Z,0.00
2019-02-07T03:47:44.297Z,0.00
2019-02-07T03:48:44.314Z,0.00
2019-02-07T03:49:44.339Z,0.00
2019-02-07T03:50:44.364Z,0.00
2019-02-07T03:51:44.384Z,0.00
2019-02-07T03:52:44.407Z,0.00
2019-02-07T03:53:44.430Z,0.00
2019-02-07T03:54:44.453Z,0.00
2019-02-07T03:55:44.477Z,0.00
2019-02-07T03:56:44.500Z,0.00
2019-02-07T03:57:44.525Z,0.00
2019-02-07T03:58:44.546Z,0.00
2019-02-07T03:59:44.571Z,0.00
2019-02-07T04:00:44.593Z,0.00
2019-02-07T04:01:44.617Z,0.00
2019-02-07T04:02:44.640Z,0.00
2019-02-07T04:03:44.664Z,0.00
2019-02-07T04:04:44.687Z,0.00
2019-02-07T04:05:44.709Z,0.00
2019-02-07T04:06:44.740Z,0.00
2019-02-07T04:07:44.761Z,0.00
2019-02-07T04:08:44.781Z,0.00
2019-02-07T04:09:44.803Z,0.00
2019-02-07T04:10:44.831Z,0.00
2019-02-07T04:11:44.851Z,0.00
2019-02-07T04:12:44.874Z,0.00
2019-02-07T04:13:44.900Z,0.00
2019-02-07T04:14:44.920Z,0.00
2019-02-07T04:15:44.945Z,0.00
2019-02-07T04:16:44.974Z,0.00
2019-02-07T04:17:44.990Z,0.00
2019-02-07T04:18:45.018Z,0.00
2019-02-07T04:19:45.041Z,0.00
2019-02-07T04:20:45.065Z,0.00
2019-02-07T04:21:45.091Z,0.00
2019-02-07T04:22:45.109Z,0.00
2019-02-07T04:23:45.140Z,0.00
2019-02-07T04:24:45.161Z,0.00
2019-02-07T04:25:45.178Z,0.00
2019-02-07T04:26:45.203Z,0.00
2019-02-07T04:27:45.224Z,0.00
2019-02-07T04:28:45.248Z,0.00
2019-02-07T04:29:45.271Z,0.00
2019-02-07T04:30:45.295Z,0.00
2019-02-07T04:31:45.324Z,0.00
2019-02-07T04:32:45.341Z,0.00
2019-02-07T04:33:45.367Z,0.00
2019-02-07T04:34:45.388Z,0.00
2019-02-07T04:35:45.414Z,0.00
2019-02-07T04:36:45.434Z,0.00
2019-02-07T04:37:45.461Z,0.00
2019-02-07T04:38:45.481Z,0.00
2019-02-07T04:39:45.507Z,0.00
2019-02-07T04:40:45.528Z,0.00
2019-02-07T04:41:45.613Z,0.00
2019-02-07T04:42:45.575Z,0.00
2019-02-07T04:43:45.597Z,0.00
2019-02-07T04:44:45.624Z,0.00
2019-02-07T04:45:45.643Z,0.00
2019-02-07T04:46:45.669Z,0.00
2019-02-07T04:47:45.691Z,0.00
2019-02-07T04:48:45.717Z,0.00
2019-02-07T04:49:45.738Z,0.00
2019-02-07T04:50:45.762Z,0.00
2019-02-07T04:51:45.788Z,0.00
2019-02-07T04:52:45.808Z,0.00
2019-02-07T04:53:45.837Z,0.00
2019-02-07T04:54:45.863Z,0.00
2019-02-07T04:55:45.886Z,0.00
2019-02-07T04:56:45.901Z,0.00
2019-02-07T04:57:45.924Z,0.00
2019-02-07T04:58:45.949Z,0.00
2019-02-07T04:59:45.972Z,0.00
2019-02-07T05:00:45.997Z,0.00
2019-02-07T05:01:46.024Z,0.00
2019-02-07T05:02:46.042Z,0.00
2019-02-07T05:03:46.067Z,0.00
2019-02-07T05:04:46.089Z,0.00
2019-02-07T05:05:46.113Z,0.00
2019-02-07T05:06:46.136Z,0.00
2019-02-07T05:07:46.175Z,0.00
2019-02-07T05:08:46.184Z,0.00
2019-02-07T05:09:46.208Z,0.00
2019-02-07T05:10:46.233Z,0.00
2019-02-07T05:11:46.254Z,0.00
2019-02-07T05:12:46.276Z,0.00
2019-02-07T05:13:46.299Z,0.00
2019-02-07T05:14:46.325Z,0.00
2019-02-07T05:15:46.350Z,0.00
2019-02-07T05:16:46.380Z,0.00
2019-02-07T05:17:46.394Z,0.00
2019-02-07T05:18:46.418Z,0.00
2019-02-07T05:19:46.442Z,0.00
2019-02-07T05:20:46.465Z,0.00
2019-02-07T05:21:46.501Z,0.00
2019-02-07T05:22:46.511Z,0.00
2019-02-07T05:23:46.540Z,0.00
2019-02-07T05:24:46.558Z,0.00
2019-02-07T05:25:46.588Z,0.00
2019-02-07T05:26:46.605Z,0.00
2019-02-07T05:27:46.630Z,0.00
2019-02-07T05:28:46.670Z,0.00
2019-02-07T05:29:46.687Z,0.00
2019-02-07T05:30:46.701Z,0.00
2019-02-07T05:31:46.786Z,0.00
2019-02-07T05:32:46.749Z,0.00
2019-02-07T05:33:46.770Z,0.00
2019-02-07T05:34:46.798Z,0.00
2019-02-07T05:35:46.920Z,0.00
2019-02-07T05:36:46.844Z,0.00
2019-02-07T05:37:49.674Z,0.00
2019-02-07T05:38:46.895Z,0.00
2019-02-07T05:39:46.914Z,0.00
2019-02-07T05:40:46.935Z,0.00
2019-02-07T05:41:46.959Z,0.00
2019-02-07T05:42:46.987Z,0.00
2019-02-07T05:43:48.175Z,0.00
2019-02-07T05:44:47.033Z,0.00
2019-02-07T05:45:47.054Z,0.00
2019-02-07T05:46:51.014Z,0.00
2019-02-07T05:47:47.103Z,0.00
2019-02-07T05:48:47.125Z,0.00
2019-02-07T05:49:47.153Z,0.00
2019-02-07T05:50:47.174Z,0.00
2019-02-07T05:51:47.201Z,0.00
2019-02-07T05:52:47.238Z,0.00
2019-02-07T05:53:47.249Z,0.00
2019-02-07T05:54:47.269Z,0.00
2019-02-07T05:55:47.293Z,0.00
2019-02-07T05:56:47.317Z,0.00
2019-02-07T05:57:47.340Z,0.00
2019-02-07T05:58:47.366Z,0.00
2019-02-07T05:59:47.389Z,0.00
2019-02-07T06:00:47.411Z,0.00
2019-02-07T06:01:47.437Z,0.00
2019-02-07T06:02:47.462Z,0.00
2019-02-07T06:03:47.487Z,0.00
2019-02-07T06:04:47.508Z,0.00
2019-02-07T06:05:47.533Z,0.00
2019-02-07T06:06:47.556Z,0.00
2019-02-07T06:07:47.585Z,0.00
2019-02-07T06:08:47.604Z,0.00
2019-02-07T06:09:49.085Z,0.00
2019-02-07T06:10:47.652Z,0.00
2019-02-07T06:11:47.678Z,0.00
2019-02-07T06:12:47.703Z,0.00
2019-02-07T06:13:47.736Z,0.00
2019-02-07T06:14:47.747Z,0.00
2019-02-07T06:15:47.775Z,0.00
2019-02-07T06:16:47.798Z,5.63
2019-02-07T06:17:47.821Z,5.63
2019-02-07T06:18:47.847Z,5.63
2019-02-07T06:19:47.868Z,5.63
2019-02-07T06:20:47.890Z,5.63
2019-02-07T06:21:48.311Z,5.63
2019-02-07T06:22:47.940Z,5.63
2019-02-07T06:23:47.971Z,11.25
2019-02-07T06:24:47.989Z,11.25
2019-02-07T06:25:48.024Z,11.25
2019-02-07T06:26:48.038Z,11.25
2019-02-07T06:27:48.063Z,11.25
2019-02-07T06:28:48.087Z,11.25
2019-02-07T06:29:48.109Z,16.88
2019-02-07T06:30:48.133Z,16.88
2019-02-07T06:31:48.159Z,16.88
2019-02-07T06:32:48.181Z,16.88
2019-02-07T06:33:48.210Z,22.50
2019-02-07T06:34:48.233Z,16.88
2019-02-07T06:35:48.255Z,16.88
2019-02-07T06:36:48.281Z,16.88
2019-02-07T06:37:48.307Z,22.50
2019-02-07T06:38:48.332Z,22.50
2019-02-07T06:39:48.358Z,28.13
2019-02-07T06:40:48.380Z,28.13
2019-02-07T06:41:48.402Z,28.13
2019-02-07T06:42:48.428Z,28.13
2019-02-07T06:43:48.454Z,33.75
2019-02-07T06:44:48.477Z,28.13
2019-02-07T06:45:48.498Z,33.75
2019-02-07T06:46:48.602Z,33.75
2019-02-07T06:47:48.556Z,39.38
2019-02-07T06:48:48.573Z,39.38
2019-02-07T06:49:48.596Z,39.38
2019-02-07T06:50:48.621Z,45.00
2019-02-07T06:51:48.647Z,45.00
2019-02-07T06:52:48.673Z,45.00
2019-02-07T06:53:48.694Z,45.00
2019-02-07T06:54:48.723Z,39.38
2019-02-07T06:55:48.744Z,39.38
2019-02-07T06:56:48.771Z,39.38
2019-02-07T06:57:48.794Z,45.00
2019-02-07T06:58:48.819Z,39.38
2019-02-07T06:59:48.844Z,39.38
2019-02-07T07:00:48.871Z,39.38
2019-02-07T07:01:48.891Z,33.75
2019-02-07T07:02:48.919Z,33.75
2019-02-07T07:03:48.941Z,33.75
2019-02-07T07:04:48.968Z,39.38
2019-02-07T07:05:48.994Z,45.00
2019-02-07T07:06:49.017Z,50.63
2019-02-07T07:07:49.040Z,50.63
2019-02-07T07:08:49.065Z,50.63
2019-02-07T07:09:49.089Z,56.25
2019-02-07T07:10:49.113Z,61.88
2019-02-07T07:11:49.138Z,61.88
2019-02-07T07:12:49.163Z,61.88
2019-02-07T07:13:49.188Z,61.88
2019-02-07T07:14:49.217Z,61.88
2019-02-07T07:15:49.239Z,61.88
2019-02-07T07:16:49.263Z,56.25
2019-02-07T07:17:49.291Z,56.25
2019-02-07T07:18:49.315Z,56.25
2019-02-07T07:19:49.445Z,61.88
2019-02-07T07:20:49.364Z,61.88
2019-02-07T07:21:49.388Z,61.88
2019-02-07T07:22:49.412Z,56.25
2019-02-07T07:23:49.438Z,56.25
2019-02-07T07:24:49.462Z,61.88
2019-02-07T07:25:49.487Z,67.50
2019-02-07T07:26:49.512Z,67.50
2019-02-07T07:27:49.540Z,73.13
2019-02-07T07:28:49.568Z,67.50
2019-02-07T07:29:49.586Z,67.50
2019-02-07T07:30:49.614Z,67.50
2019-02-07T07:31:49.639Z,56.25
2019-02-07T07:32:49.660Z,56.25
2019-02-07T07:33:49.690Z,56.25
2019-02-07T07:34:49.716Z,61.88
2019-02-07T07:35:49.742Z,67.50
2019-02-07T07:36:49.763Z,67.50
2019-02-07T07:37:49.788Z,78.75
2019-02-07T07:38:49.810Z,73.13
2019-02-07T07:39:49.836Z,67.50
2019-02-07T07:40:49.861Z,73.13
2019-02-07T07:41:49.885Z,78.75
2019-02-07T07:42:49.912Z,90.00
2019-02-07T07:43:49.936Z,106.88
2019-02-07T07:44:49.962Z,101.25
2019-02-07T07:45:49.992Z,106.88
2019-02-07T07:46:50.015Z,112.50
2019-02-07T07:47:50.037Z,112.50
2019-02-07T07:48:50.061Z,123.75
2019-02-07T07:49:50.091Z,157.50
2019-02-07T07:50:50.164Z,191.25
2019-02-07T07:51:50.140Z,208.13
2019-02-07T07:52:50.162Z,180.00
2019-02-07T07:53:50.188Z,151.88
2019-02-07T07:54:50.215Z,146.25
2019-02-07T07:55:50.242Z,140.63
2019-02-07T07:56:50.264Z,151.88
2019-02-07T07:57:50.291Z,157.50
2019-02-07T07:58:50.313Z,151.88
2019-02-07T07:59:50.340Z,163.13
2019-02-07T08:00:50.367Z,157.50
2019-02-07T08:01:50.391Z,151.88
2019-02-07T08:02:50.419Z,163.13
2019-02-07T08:03:50.444Z,157.50
2019-02-07T08:04:50.470Z,146.25
2019-02-07T08:05:50.493Z,157.50
2019-02-07T08:06:50.520Z,168.75
2019-02-07T08:07:50.548Z,163.13
2019-02-07T08:08:50.571Z,140.63
2019-02-07T08:09:50.598Z,146.25
2019-02-07T08:10:50.626Z,163.13
2019-02-07T08:11:50.649Z,163.13
2019-02-07T08:12:50.676Z,146.25
2019-02-07T08:13:50.699Z,163.13
2019-02-07T08:14:50.724Z,163.13
2019-02-07T08:15:50.751Z,151.88
2019-02-07T08:16:50.778Z,163.13
2019-02-07T08:17:50.804Z,174.38
2019-02-07T08:18:50.840Z,180.00
2019-02-07T08:19:50.855Z,174.38
2019-02-07T08:20:50.880Z,163.13
2019-02-07T08:21:50.908Z,157.50
2019-02-07T08:22:50.933Z,174.38
2019-02-07T08:23:50.962Z,174.38
2019-02-07T08:24:50.983Z,168.75
2019-02-07T08:25:51.009Z,174.38
2019-02-07T08:26:51.034Z,185.63
2019-02-07T08:27:51.061Z,180.00
2019-02-07T08:28:51.086Z,185.63
2019-02-07T08:29:51.113Z,174.38
2019-02-07T08:30:51.142Z,174.38
2019-02-07T08:31:51.167Z,191.25
2019-02-07T08:32:51.190Z,185.63
2019-02-07T08:33:51.217Z,174.38
2019-02-07T08:34:51.246Z,180.00
2019-02-07T08:35:51.269Z,208.13
2019-02-07T08:36:51.297Z,196.88
2019-02-07T08:37:51.325Z,202.50
2019-02-07T08:38:51.348Z,185.63
2019-02-07T08:39:51.376Z,196.88
2019-02-07T08:40:51.397Z,208.13
2019-02-07T08:41:51.425Z,208.13
2019-02-07T08:42:51.449Z,236.25
2019-02-07T08:43:51.580Z,241.88
2019-02-07T08:44:51.519Z,225.00
2019-02-07T08:45:51.588Z,219.38
2019-02-07T08:46:51.553Z,213.75
2019-02-07T08:47:58.439Z,225.00
2019-02-07T08:48:51.604Z,225.00
2019-02-07T08:49:51.630Z,225.00
2019-02-07T08:50:51.660Z,241.88
2019-02-07T08:51:51.685Z,264.38
2019-02-07T08:52:51.710Z,270.00
2019-02-07T08:53:51.738Z,253.13
2019-02-07T08:54:51.764Z,292.50
2019-02-07T08:55:51.790Z,303.75
2019-02-07T08:56:51.817Z,281.25
2019-02-07T08:57:51.840Z,270.00
2019-02-07T08:58:51.866Z,298.13
2019-02-07T08:59:51.897Z,298.13
2019-02-07T09:00:51.917Z,303.75
2019-02-07T09:01:51.946Z,281.25
2019-02-07T09:02:52.209Z,292.50
2019-02-07T09:03:51.999Z,275.63
2019-02-07T09:04:52.030Z,247.50
2019-02-07T09:05:52.051Z,247.50
2019-02-07T09:06:52.079Z,225.00
2019-02-07T09:07:52.107Z,208.13
2019-02-07T09:08:52.132Z,208.13
2019-02-07T09:09:52.159Z,208.13
2019-02-07T09:10:52.184Z,208.13
2019-02-07T09:11:52.211Z,213.75
2019-02-07T09:12:55.057Z,225.00
2019-02-07T09:13:53.899Z,236.25
2019-02-07T09:14:52.293Z,230.63
2019-02-07T09:15:52.320Z,236.25
2019-02-07T09:16:52.345Z,230.63
2019-02-07T09:17:52.374Z,213.75
2019-02-07T09:18:52.404Z,213.75
2019-02-07T09:19:52.427Z,196.88
2019-02-07T09:20:52.452Z,191.25
2019-02-07T09:21:52.482Z,196.88
2019-02-07T09:22:52.506Z,191.25
2019-02-07T09:23:52.533Z,191.25
2019-02-07T09:24:52.558Z,196.88
2019-02-07T09:25:52.587Z,208.13
2019-02-07T09:26:52.613Z,213.75
2019-02-07T09:27:52.640Z,230.63
2019-02-07T09:28:52.668Z,247.50
2019-02-07T09:29:52.693Z,253.13
2019-02-07T09:30:52.718Z,253.13
2019-02-07T09:31:52.746Z,264.38
2019-02-07T09:32:52.772Z,264.38
2019-02-07T09:33:52.798Z,270.00
2019-02-07T09:34:52.827Z,303.75
2019-02-07T09:35:52.857Z,292.50
2019-02-07T09:36:52.883Z,270.00
2019-02-07T09:37:52.909Z,275.63
2019-02-07T09:38:52.937Z,253.13
2019-02-07T09:39:52.959Z,247.50
2019-02-07T09:40:52.986Z,253.13
2019-02-07T09:41:53.012Z,253.13
2019-02-07T09:42:53.039Z,241.88
2019-02-07T09:43:53.072Z,241.88
2019-02-07T09:44:53.093Z,247.50
2019-02-07T09:45:53.123Z,275.63
2019-02-07T09:46:53.149Z,281.25
2019-02-07T09:47:53.176Z,281.25
2019-02-07T09:48:53.201Z,303.75
2019-02-07T09:49:53.231Z,309.38
2019-02-07T09:50:53.255Z,309.38
2019-02-07T09:51:53.285Z,326.25
2019-02-07T09:52:53.309Z,315.00
2019-02-07T09:53:53.335Z,309.38
2019-02-07T09:54:53.363Z,326.25
2019-02-07T09:55:53.392Z,343.13
2019-02-07T09:56:53.416Z,337.50
2019-02-07T09:57:53.446Z,292.50
2019-02-07T09:58:53.472Z,320.63
2019-02-07T09:59:53.500Z,348.75
2019-02-07T10:00:53.526Z,331.88
2019-02-07T10:01:53.552Z,348.75
2019-02-07T10:02:53.588Z,348.75
2019-02-07T10:03:53.609Z,337.50
2019-02-07T10:04:53.638Z,337.50
2019-02-07T10:05:53.662Z,360.00
2019-02-07T10:06:53.690Z,331.88
2019-02-07T10:07:53.718Z,315.00
2019-02-07T10:08:53.745Z,298.13
2019-02-07T10:09:53.772Z,281.25
2019-02-07T10:10:53.801Z,275.63
2019-02-07T10:11:53.829Z,286.88
2019-02-07T10:12:53.856Z,275.63
2019-02-07T10:13:53.882Z,264.38
2019-02-07T10:14:53.911Z,315.00
2019-02-07T10:15:53.937Z,365.63
2019-02-07T10:16:53.963Z,315.00
2019-02-07T10:17:54.078Z,264.38
2019-02-07T10:18:54.020Z,286.88
2019-02-07T10:19:54.049Z,298.13
2019-02-07T10:20:54.078Z,281.25
2019-02-07T10:21:54.102Z,286.88
2019-02-07T10:22:54.129Z,286.88
2019-02-07T10:23:54.157Z,270.00
2019-02-07T10:24:54.184Z,241.88
2019-02-07T10:25:54.214Z,275.63
2019-02-07T10:26:54.241Z,281.25
2019-02-07T10:27:54.268Z,258.75
2019-02-07T10:28:54.294Z,230.63
2019-02-07T10:29:54.321Z,241.88
2019-02-07T10:30:54.350Z,258.75
2019-02-07T10:31:54.376Z,281.25
2019-02-07T10:32:54.409Z,270.00
2019-02-07T10:33:54.432Z,225.00
2019-02-07T10:34:54.461Z,236.25
2019-02-07T10:35:54.487Z,247.50
2019-02-07T10:36:54.514Z,241.88
2019-02-07T10:37:54.540Z,253.13
2019-02-07T10:38:54.570Z,270.00
2019-02-07T10:39:54.598Z,286.88
2019-02-07T10:40:54.624Z,270.00
2019-02-07T10:41:54.653Z,253.13
2019-02-07T10:42:54.685Z,292.50
2019-02-07T10:43:54.711Z,298.13
2019-02-07T10:44:54.734Z,292.50
2019-02-07T10:45:54.760Z,270.00
2019-02-07T10:46:54.791Z,275.63
2019-02-07T10:47:54.820Z,264.38
2019-02-07T10:48:54.841Z,241.88
2019-02-07T10:49:59.249Z,270.00
2019-02-07T10:50:54.898Z,286.88
2019-02-07T10:51:54.925Z,270.00
2019-02-07T10:52:54.953Z,241.88
2019-02-07T10:53:54.980Z,264.38
2019-02-07T10:54:55.008Z,270.00
2019-02-07T10:55:55.037Z,264.38
2019-02-07T10:56:55.063Z,241.88
2019-02-07T10:57:55.095Z,241.88
2019-02-07T10:58:55.117Z,270.00
2019-02-07T10:59:55.151Z,315.00
2019-02-07T11:00:55.171Z,326.25
2019-02-07T11:01:55.199Z,309.38
2019-02-07T11:02:55.230Z,309.38
2019-02-07T11:03:55.258Z,309.38
2019-02-07T11:04:55.283Z,281.25
2019-02-07T11:05:55.311Z,264.38
2019-02-07T11:06:55.343Z,286.88
2019-02-07T11:07:55.366Z,281.25
2019-02-07T11:08:55.393Z,270.00
2019-02-07T11:09:55.421Z,281.25
2019-02-07T11:10:55.451Z,275.63
2019-02-07T11:11:55.476Z,253.13
2019-02-07T11:12:55.504Z,258.75
2019-02-07T11:13:55.533Z,264.38
2019-02-07T11:14:55.561Z,241.88
2019-02-07T11:15:55.589Z,230.63
2019-02-07T11:16:55.614Z,241.88
2019-02-07T11:17:55.643Z,241.88
2019-02-07T11:18:55.909Z,264.38
2019-02-07T11:19:55.700Z,258.75
2019-02-07T11:20:55.723Z,270.00
2019-02-07T11:21:55.802Z,286.88
2019-02-07T11:22:55.779Z,264.38
2019-02-07T11:23:55.807Z,241.88
2019-02-07T11:24:55.834Z,247.50
2019-02-07T11:25:55.868Z,258.75
2019-02-07T11:26:55.972Z,230.63
2019-02-07T11:27:55.921Z,241.88
2019-02-07T11:28:55.970Z,230.63
2019-02-07T11:29:55.976Z,230.63
2019-02-07T11:30:56.003Z,236.25
2019-02-07T11:31:56.030Z,213.75
2019-02-07T11:32:56.057Z,208.13
2019-02-07T11:33:56.086Z,196.88
2019-02-07T11:34:56.112Z,196.88
2019-02-07T11:35:56.145Z,202.50
2019-02-07T11:36:56.167Z,196.88
2019-02-07T11:37:56.198Z,202.50
2019-02-07T11:38:56.226Z,202.50
2019-02-07T11:39:56.249Z,208.13
2019-02-07T11:40:56.276Z,191.25
2019-02-07T11:41:56.310Z,196.88
2019-02-07T11:42:56.337Z,185.63
2019-02-07T11:43:56.359Z,163.13
2019-02-07T11:44:56.387Z,174.38
2019-02-07T11:45:56.421Z,168.75
2019-02-07T11:47:05.168Z,174.38
2019-02-07T11:47:56.473Z,168.75
2019-02-07T11:49:06.320Z,163.13
2019-02-07T11:49:56.529Z,168.75
2019-02-07T11:50:56.556Z,174.38
2019-02-07T11:51:56.580Z,151.88
2019-02-07T11:52:56.607Z,157.50
2019-02-07T11:53:56.637Z,163.13
2019-02-07T11:54:56.666Z,163.13
2019-02-07T11:55:56.691Z,163.13
2019-02-07T11:56:56.720Z,163.13
2019-02-07T11:57:56.748Z,168.75
2019-02-07T11:58:56.774Z,163.13
2019-02-07T11:59:56.804Z,157.50
2019-02-07T12:00:56.833Z,180.00
2019-02-07T12:01:56.855Z,180.00
2019-02-07T12:02:56.885Z,180.00
2019-02-07T12:03:56.912Z,185.63
2019-02-07T12:04:56.937Z,196.88
2019-02-07T12:05:56.968Z,202.50
2019-02-07T12:06:56.994Z,185.63
2019-02-07T12:07:57.022Z,191.25
2019-02-07T12:08:57.048Z,180.00
2019-02-07T12:09:57.081Z,191.25
2019-02-07T12:10:57.104Z,191.25
2019-02-07T12:11:57.136Z,191.25
2019-02-07T12:12:57.159Z,208.13
2019-02-07T12:13:57.187Z,202.50
2019-02-07T12:14:57.211Z,191.25
2019-02-07T12:15:57.241Z,180.00
2019-02-07T12:16:57.267Z,180.00
2019-02-07T12:17:57.297Z,185.63
2019-02-07T12:18:57.324Z,174.38
2019-02-07T12:19:57.351Z,163.13
2019-02-07T12:20:57.377Z,168.75
2019-02-07T12:21:57.406Z,163.13
2019-02-07T12:22:57.434Z,168.75
2019-02-07T12:23:57.461Z,163.13
2019-02-07T12:24:57.486Z,157.50
2019-02-07T12:25:57.514Z,146.25
2019-02-07T12:26:57.545Z,157.50
2019-02-07T12:27:57.570Z,151.88
2019-02-07T12:28:57.597Z,151.88
2019-02-07T12:29:57.625Z,140.63
2019-02-07T12:30:57.654Z,140.63
2019-02-07T12:31:57.679Z,135.00
2019-02-07T12:32:57.712Z,129.38
2019-02-07T12:33:57.737Z,123.75
2019-02-07T12:34:57.765Z,123.75
2019-02-07T12:35:57.792Z,123.75
2019-02-07T12:36:57.817Z,129.38
2019-02-07T12:37:57.844Z,135.00
2019-02-07T12:38:57.873Z,129.38
2019-02-07T12:39:57.899Z,123.75
2019-02-07T12:40:57.925Z,135.00
2019-02-07T12:41:57.954Z,129.38
2019-02-07T12:42:57.984Z,129.38
2019-02-07T12:43:58.029Z,135.00
2019-02-07T12:44:58.034Z,146.25
2019-02-07T12:45:58.065Z,140.63
2019-02-07T12:46:58.090Z,135.00
2019-02-07T12:47:58.120Z,129.38
2019-02-07T12:48:58.145Z,140.63
2019-02-07T12:49:58.171Z,135.00
2019-02-07T12:50:58.199Z,140.63
2019-02-07T12:51:58.332Z,140.63
2019-02-07T12:52:58.256Z,146.25
2019-02-07T12:53:58.279Z,140.63
2019-02-07T12:54:58.307Z,135.00